Time;durP1;ratioP1;P1;durP2;ratioP2;P2;SDS_P1;SDS_P2;PMS_P1;PMS_P2;Temp;Humidity;BMP_temperature;BMP_pressure;BME280_temperature;BME280_humidity;BME280_pressure;Samples;Min_cycle;Max_cycle;Signal;HPM_P1;HPM_P2
2021/07/01 00:05:11;;;;;;;5.70;5.17;;;20.40;81.00;;;;;;10452097;28;20237;-26
2021/07/01 00:10:34;;;;;;;5.77;5.20;;;20.40;81.00;;;;;;10466427;28;20592;-26
2021/07/01 00:15:56;;;;;;;6.27;5.30;;;20.40;81.00;;;;;;10452391;28;20221;-26
2021/07/01 00:21:19;;;;;;;5.43;5.03;;;20.40;81.00;;;;;;10452511;28;20221;-28
2021/07/01 00:26:41;;;;;;;6.03;5.53;;;20.40;80.90;;;;;;10459290;28;20677;-28
2021/07/01 00:32:04;;;;;;;5.57;5.07;;;20.40;80.80;;;;;;10478425;28;20193;-28
2021/07/01 00:37:29;;;;;;;5.50;5.00;;;20.40;80.90;;;;;;10492301;28;20213;-28
2021/07/01 00:42:51;;;;;;;6.00;5.40;;;20.40;80.80;;;;;;10494673;28;20564;-27
2021/07/01 00:48:13;;;;;;;6.40;5.80;;;20.40;80.80;;;;;;10484052;28;20224;-27
2021/07/01 00:53:37;;;;;;;5.97;5.43;;;20.40;80.80;;;;;;10494263;28;20197;-26
2021/07/01 00:58:59;;;;;;;6.10;5.40;;;20.40;80.70;;;;;;10470964;28;20200;-26
2021/07/01 01:04:21;;;;;;;6.40;5.80;;;20.30;80.60;;;;;;10450439;28;20221;-27
2021/07/01 01:09:44;;;;;;;6.20;5.60;;;20.30;80.70;;;;;;10462509;28;20210;-26
2021/07/01 01:15:07;;;;;;;6.07;5.57;;;20.30;80.60;;;;;;10450984;28;20209;-25
2021/07/01 01:20:30;;;;;;;6.40;5.80;;;20.30;80.40;;;;;;10463724;28;20722;-25
2021/07/01 01:25:55;;;;;;;6.70;6.10;;;20.30;80.50;;;;;;10451052;28;20228;-26
2021/07/01 01:31:18;;;;;;;6.40;5.80;;;20.30;80.50;;;;;;10453920;28;20181;-26
2021/07/01 01:36:40;;;;;;;6.20;5.60;;;20.30;80.40;;;;;;10492134;28;20223;-25
2021/07/01 01:42:04;;;;;;;6.60;5.63;;;20.30;80.40;;;;;;10492748;28;20220;-27
2021/07/01 01:47:26;;;;;;;6.90;6.10;;;20.30;80.40;;;;;;10465741;28;20627;-26
2021/07/01 01:52:48;;;;;;;7.13;6.43;;;20.30;80.40;;;;;;10449757;28;20564;-26
2021/07/01 01:58:11;;;;;;;7.07;6.37;;;20.30;80.30;;;;;;10454368;28;20595;-25
2021/07/01 02:03:33;;;;;;;6.13;5.63;;;20.30;80.30;;;;;;10456686;28;20792;-27
2021/07/01 02:08:55;;;;;;;6.27;5.67;;;20.30;80.40;;;;;;10458563;28;20196;-28
2021/07/01 02:14:19;;;;;;;6.27;5.67;;;20.30;80.20;;;;;;10497367;28;20231;-28
2021/07/01 02:19:41;;;;;;;6.33;5.77;;;20.30;80.20;;;;;;10497092;28;20199;-27
2021/07/01 02:25:05;;;;;;;6.13;5.47;;;20.30;80.10;;;;;;10458671;28;20692;-27
2021/07/01 02:30:28;;;;;;;5.50;5.00;;;20.30;80.10;;;;;;10499635;28;20196;-26
2021/07/01 02:35:51;;;;;;;5.27;4.77;;;20.30;80.10;;;;;;10476165;28;20692;-27
2021/07/01 02:41:13;;;;;;;5.80;5.30;;;20.30;80.00;;;;;;10461992;28;20555;-27
2021/07/01 02:46:37;;;;;;;5.70;5.20;;;20.30;80.10;;;;;;10487818;28;20230;-27
2021/07/01 02:51:59;;;;;;;5.87;5.17;;;20.30;79.90;;;;;;10497711;28;20192;-25
2021/07/01 02:57:21;;;;;;;5.77;5.17;;;20.30;80.00;;;;;;10495511;28;20710;-26
2021/07/01 03:02:45;;;;;;;5.67;5.13;;;20.30;79.90;;;;;;10488173;28;20212;-27
2021/07/01 03:08:07;;;;;;;5.43;4.93;;;20.30;79.80;;;;;;10492628;28;20224;-26
2021/07/01 03:13:29;;;;;;;5.00;4.57;;;20.30;79.60;;;;;;10476472;28;20703;-26
2021/07/01 03:18:54;;;;;;;4.83;4.43;;;20.30;80.30;;;;;;10484943;28;20603;-27
2021/07/01 03:24:16;;;;;;;5.57;4.97;;;20.30;79.60;;;;;;10453712;28;20221;-25
2021/07/01 03:29:38;;;;;;;5.17;4.67;;;20.30;79.50;;;;;;10452787;28;20683;-26
2021/07/01 03:35:02;;;;;;;5.40;4.90;;;20.30;79.50;;;;;;10473070;28;20581;-25
2021/07/01 03:40:24;;;;;;;5.43;4.93;;;20.30;79.50;;;;;;10451310;28;20212;-27
2021/07/01 03:45:46;;;;;;;6.30;5.70;;;20.30;79.40;;;;;;10452780;28;20718;-27
2021/07/01 03:51:10;;;;;;;6.10;5.50;;;20.30;79.50;;;;;;10452298;28;20193;-26
2021/07/01 03:56:41;;;;;;;6.30;5.70;;;20.30;79.50;;;;;;10451682;28;20696;-27
2021/07/01 04:02:04;;;;;;;7.07;6.13;;;20.30;79.40;;;;;;10452568;28;20207;-26
2021/07/01 04:07:27;;;;;;;6.23;5.63;;;20.30;79.30;;;;;;10415909;28;1063973;-26
2021/07/01 04:12:49;;;;;;;6.80;6.13;;;20.30;79.30;;;;;;10459164;28;20201;-26
2021/07/01 04:18:13;;;;;;;7.00;6.30;;;20.30;79.30;;;;;;10453411;28;20584;-26
2021/07/01 04:23:37;;;;;;;7.07;6.47;;;20.30;79.30;;;;;;10478596;28;20267;-26
2021/07/01 04:28:59;;;;;;;8.77;6.97;;;20.30;79.20;;;;;;10454559;28;20216;-25
2021/07/01 04:34:21;;;;;;;7.10;6.40;;;20.30;79.20;;;;;;10464470;28;20228;-27
2021/07/01 04:39:44;;;;;;;7.30;6.60;;;20.30;79.10;;;;;;10465490;28;20196;-27
2021/07/01 04:45:08;;;;;;;6.63;5.97;;;20.30;79.20;;;;;;10491932;28;20840;-27
2021/07/01 04:50:31;;;;;;;7.23;6.60;;;20.30;79.20;;;;;;10490376;28;20551;-25
2021/07/01 04:55:54;;;;;;;7.47;6.67;;;20.30;79.40;;;;;;10493040;28;20219;-27
2021/07/01 05:01:16;;;;;;;7.03;6.30;;;20.20;79.30;;;;;;10482038;28;20219;-26
2021/07/01 05:06:40;;;;;;;7.13;6.43;;;20.20;79.10;;;;;;10460239;28;20225;-26
2021/07/01 05:12:04;;;;;;;7.53;6.83;;;20.20;79.10;;;;;;10450464;28;20204;-27
2021/07/01 05:17:26;;;;;;;7.37;6.67;;;20.20;79.00;;;;;;10450704;28;20224;-27
2021/07/01 05:22:48;;;;;;;6.17;5.67;;;20.20;79.20;;;;;;10468109;28;20217;-27
2021/07/01 05:28:12;;;;;;;5.60;5.10;;;20.20;79.20;;;;;;10488014;28;20239;-25
2021/07/01 05:33:34;;;;;;;6.13;5.57;;;20.20;79.20;;;;;;10495907;28;20196;-28
2021/07/01 05:38:56;;;;;;;6.30;5.73;;;20.20;79.10;;;;;;10499457;28;20192;-28
2021/07/01 05:44:19;;;;;;;6.57;5.70;;;20.20;79.10;;;;;;10500492;28;20220;-27
2021/07/01 05:49:42;;;;;;;6.40;5.80;;;20.20;79.20;;;;;;10498526;28;20548;-25
2021/07/01 05:55:04;;;;;;;5.60;5.10;;;20.20;79.30;;;;;;10482848;28;20224;-28
2021/07/01 06:00:29;;;;;;;5.60;5.10;;;20.20;79.30;;;;;;10495608;28;20193;-26
2021/07/01 06:05:56;;;;;;;4.77;4.10;;;20.20;79.20;;;;;;10489569;28;20228;-27
2021/07/01 06:11:19;;;;;;;2.93;2.67;;;20.10;77.00;;;;;;10476208;28;20196;-28
2021/07/01 06:16:42;;;;;;;2.20;2.00;;;19.50;77.90;;;;;;10481641;28;20692;-26
2021/07/01 06:22:04;;;;;;;2.80;1.70;;;19.20;78.20;;;;;;10456254;28;20217;-26
2021/07/01 06:27:32;;;;;;;1.67;1.57;;;18.90;78.90;;;;;;10459032;28;20232;-25
2021/07/01 06:32:56;;;;;;;1.83;1.63;;;18.80;79.70;;;;;;10491194;28;20286;-28
2021/07/01 06:38:23;;;;;;;4.67;1.70;;;18.70;80.30;;;;;;10496949;28;20826;-27
2021/07/01 06:43:48;;;;;;;1.93;1.60;;;18.60;80.80;;;;;;10455253;28;20217;-26
2021/07/01 06:49:13;;;;;;;1.87;1.60;;;18.60;80.90;;;;;;10489735;28;20260;-27
2021/07/01 06:54:37;;;;;;;1.80;1.70;;;18.60;81.10;;;;;;10491682;28;20216;-25
2021/07/01 06:59:59;;;;;;;1.50;1.30;;;18.60;81.10;;;;;;10474131;28;20198;-27
2021/07/01 07:05:23;;;;;;;3.60;1.40;;;18.50;81.90;;;;;;10476558;28;20224;-27
2021/07/01 07:10:45;;;;;;;2.93;1.40;;;18.40;82.20;;;;;;10468009;28;20204;-25
2021/07/01 07:16:08;;;;;;;1.03;0.93;;;18.40;82.10;;;;;;10464559;28;20217;-28
2021/07/01 07:21:37;;;;;;;1.73;1.30;;;18.50;82.10;;;;;;10465778;28;20217;-26
2021/07/01 07:26:59;;;;;;;1.17;1.07;;;18.40;82.60;;;;;;10454996;28;20213;-26
2021/07/01 07:32:27;;;;;;;2.60;1.40;;;18.30;82.60;;;;;;10452110;28;20197;-26
2021/07/01 07:37:51;;;;;;;1.60;1.47;;;18.30;83.00;;;;;;10453811;28;20213;-29
2021/07/01 07:43:14;;;;;;;2.73;1.80;;;18.30;83.40;;;;;;10453212;28;20228;-26
2021/07/01 07:48:36;;;;;;;2.60;2.17;;;18.30;83.70;;;;;;10452467;28;20255;-30
2021/07/01 07:54:02;;;;;;;2.50;2.30;;;18.30;82.80;;;;;;10452562;28;20189;-30
2021/07/01 07:59:28;;;;;;;2.77;2.30;;;18.20;83.70;;;;;;10492156;28;20196;-28
2021/07/01 08:04:51;;;;;;;3.07;2.43;;;18.20;84.30;;;;;;10484565;28;20220;-27
2021/07/01 08:10:18;;;;;;;3.17;2.63;;;18.20;84.60;;;;;;10478210;28;20204;-31
2021/07/01 08:15:41;;;;;;;3.83;2.30;;;18.30;84.00;;;;;;10454177;28;20217;-25
2021/07/01 08:21:04;;;;;;;2.70;2.50;;;18.30;84.20;;;;;;10460833;28;20283;-27
2021/07/01 08:26:27;;;;;;;2.63;2.43;;;18.30;84.70;;;;;;10452433;28;20616;-26
2021/07/01 08:31:50;;;;;;;2.30;2.10;;;18.30;84.30;;;;;;10451755;28;20197;-26
2021/07/01 08:37:13;;;;;;;2.47;2.27;;;18.40;84.50;;;;;;10451649;28;20213;-27
2021/07/01 08:42:39;;;;;;;3.00;1.90;;;18.40;84.50;;;;;;10451590;28;20216;-27
2021/07/01 08:48:05;;;;;;;1.90;1.57;;;18.40;84.80;;;;;;10458615;28;20209;-27
2021/07/01 08:53:47;;;;;;;2.47;1.83;;;18.30;85.50;;;;;;10485458;28;20194;-27
2021/07/01 08:59:12;;;;;;;1.67;1.57;;;18.20;86.10;;;;;;10493099;28;20199;-27
2021/07/01 09:04:49;;;;;;;3.10;1.77;;;18.30;85.60;;;;;;10478751;28;20216;-30
2021/07/01 09:10:12;;;;;;;2.87;1.70;;;18.30;87.10;;;;;;10487272;28;20276;-27
2021/07/01 09:15:37;;;;;;;1.53;1.43;;;18.40;86.80;;;;;;10459012;28;20692;-29
2021/07/01 09:20:59;;;;;;;1.87;1.70;;;18.50;85.60;;;;;;10471907;28;20192;-29
2021/07/01 09:26:23;;;;;;;1.87;1.77;;;18.50;86.40;;;;;;10459710;28;20213;-30
2021/07/01 09:31:49;;;;;;;2.13;1.93;;;18.60;85.90;;;;;;10458168;28;20189;-29
2021/07/01 09:37:12;;;;;;;2.40;2.20;;;18.60;85.00;;;;;;10458540;28;20220;-27
2021/07/01 09:42:35;;;;;;;1.97;1.87;;;18.60;85.50;;;;;;10457328;28;20213;-28
2021/07/01 09:48:06;;;;;;;3.73;2.10;;;18.60;85.90;;;;;;10458100;28;20704;-28
2021/07/01 09:53:32;;;;;;;2.80;2.50;;;18.60;85.90;;;;;;10457015;28;20328;-27
2021/07/01 09:59:00;;;;;;;2.17;2.07;;;18.70;86.10;;;;;;10466533;28;20189;-28
2021/07/01 10:04:23;;;;;;;2.40;2.07;;;18.80;85.80;;;;;;10458280;28;20221;-29
2021/07/01 10:09:47;;;;;;;3.17;2.77;;;18.80;85.40;;;;;;10471868;28;20196;-27
2021/07/01 10:15:23;;;;;;;2.73;2.43;;;18.90;85.60;;;;;;10468131;28;20253;-27
2021/07/01 10:20:49;;;;;;;2.80;2.57;;;18.90;85.00;;;;;;10478534;28;20579;-27
2021/07/01 10:26:15;;;;;;;2.90;2.67;;;19.00;85.60;;;;;;10480781;28;20826;-28
2021/07/01 10:31:49;;;;;;;3.70;3.30;;;18.90;86.50;;;;;;10469858;28;20189;-28
2021/07/01 10:37:17;;;;;;;3.53;2.83;;;19.00;86.20;;;;;;10456499;28;20274;-28
2021/07/01 10:42:49;;;;;;;3.87;3.43;;;18.90;86.10;;;;;;10455682;28;20217;-27
2021/07/01 10:48:17;;;;;;;4.20;3.80;;;18.80;87.00;;;;;;10455927;28;20224;-28
2021/07/01 10:53:42;;;;;;;4.87;4.37;;;18.90;87.20;;;;;;10455828;28;20188;-27
2021/07/01 10:59:04;;;;;;;6.70;4.07;;;19.00;87.40;;;;;;10468588;28;20403;-28
2021/07/01 11:04:28;;;;;;;5.93;4.83;;;19.00;87.00;;;;;;10464627;28;20228;-28
2021/07/01 11:09:56;;;;;;;16.37;5.17;;;19.00;87.30;;;;;;10459052;28;20284;-28
2021/07/01 11:15:18;;;;;;;5.10;4.60;;;19.00;87.00;;;;;;10448951;28;20209;-28
2021/07/01 11:20:40;;;;;;;5.50;5.00;;;19.00;88.10;;;;;;10456954;28;20197;-28
2021/07/01 11:26:04;;;;;;;6.53;5.83;;;19.00;88.20;;;;;;10449286;28;20229;-28
2021/07/01 11:31:34;;;;;;;8.23;5.97;;;19.00;88.70;;;;;;10447515;28;20272;-28
2021/07/01 11:36:56;;;;;;;6.97;6.27;;;19.00;88.70;;;;;;10460502;28;20263;-28
2021/07/01 11:42:20;;;;;;;5.10;4.30;;;19.10;88.90;;;;;;10453760;28;20204;-28
2021/07/01 11:47:43;;;;;;;4.93;4.33;;;19.30;86.30;;;;;;10493737;28;20243;-27
2021/07/01 11:53:06;;;;;;;4.53;4.13;;;19.40;84.70;;;;;;10454817;28;20197;-27
2021/07/01 11:58:32;;;;;;;5.30;3.77;;;19.50;83.70;;;;;;10465015;28;20228;-28
2021/07/01 12:03:54;;;;;;;3.33;3.03;;;19.60;83.00;;;;;;10489235;28;20298;-28
2021/07/01 12:09:17;;;;;;;3.50;3.20;;;19.60;82.60;;;;;;10483316;28;20204;-28
2021/07/01 12:14:42;;;;;;;3.37;3.07;;;19.70;82.30;;;;;;10473990;28;20599;-28
2021/07/01 12:20:06;;;;;;;3.53;3.00;;;19.70;82.20;;;;;;10462735;28;20193;-28
2021/07/01 12:25:49;;;;;;;3.47;3.17;;;19.70;81.90;;;;;;10445273;28;20217;-29
2021/07/01 12:31:22;;;;;;;2.77;2.57;;;19.80;81.80;;;;;;10445440;28;20192;-26
2021/07/01 12:36:47;;;;;;;3.57;3.27;;;19.80;81.90;;;;;;10448999;28;20703;-27
2021/07/01 12:42:23;;;;;;;3.47;3.17;;;19.80;82.00;;;;;;10486478;28;20296;-27
2021/07/01 12:47:46;;;;;;;3.90;3.20;;;19.90;82.30;;;;;;10486297;28;20216;-28
2021/07/01 12:53:31;;;;;;;3.17;2.97;;;19.90;82.10;;;;;;10488074;28;20674;-27
2021/07/01 12:58:53;;;;;;;3.53;3.23;;;19.90;82.00;;;;;;10459355;28;20212;-28
2021/07/01 13:04:22;;;;;;;3.40;3.10;;;19.90;82.20;;;;;;10451388;28;20250;-28
2021/07/01 13:09:46;;;;;;;7.60;3.23;;;19.90;82.20;;;;;;10474663;28;20190;-27
2021/07/01 13:15:10;;;;;;;8.37;3.37;;;19.90;82.10;;;;;;10460401;28;20209;-28
2021/07/01 13:20:34;;;;;;;11.40;3.90;;;20.00;82.80;;;;;;10455573;28;20197;-28
2021/07/01 13:25:56;;;;;;;8.47;4.20;;;20.00;82.00;;;;;;10451130;28;20232;-29
2021/07/01 13:31:29;;;;;;;7.37;3.50;;;20.00;82.40;;;;;;10449732;28;20224;-28
2021/07/01 13:36:52;;;;;;;6.60;4.13;;;20.00;81.70;;;;;;10449581;28;20213;-28
2021/07/01 13:42:25;;;;;;;7.30;3.73;;;20.10;82.20;;;;;;10464063;28;20219;-29
2021/07/01 13:47:50;;;;;;;7.43;3.53;;;20.10;82.40;;;;;;10470370;28;20225;-30
2021/07/01 13:53:16;;;;;;;5.60;3.63;;;20.10;82.30;;;;;;10452635;28;20193;-28
2021/07/01 13:58:41;;;;;;;6.97;3.33;;;20.10;82.40;;;;;;10478756;28;20564;-28
2021/07/01 14:04:03;;;;;;;5.72;3.80;;;20.10;82.10;;;;;;10470531;28;20439;-28
2021/07/01 14:09:26;;;;;;;4.63;3.50;;;20.20;81.60;;;;;;10457279;28;20204;-28
2021/07/01 14:14:48;;;;;;;5.47;3.00;;;20.10;81.90;;;;;;10458186;28;20213;-30
2021/07/01 14:20:11;;;;;;;6.10;3.60;;;20.10;82.00;;;;;;10479753;28;20197;-28
2021/07/01 14:25:38;;;;;;;6.22;3.88;;;20.10;82.10;;;;;;10463615;28;20449;-27
2021/07/01 14:31:09;;;;;;;3.53;3.17;;;20.20;81.50;;;;;;10497785;28;20196;-27
2021/07/01 14:36:34;;;;;;;5.57;3.57;;;20.10;81.70;;;;;;10497111;28;20209;-28
2021/07/01 14:42:04;;;;;;;5.67;3.47;;;20.10;81.80;;;;;;10483832;28;20292;-27
2021/07/01 14:47:26;;;;;;;3.67;3.30;;;20.10;82.00;;;;;;10470680;28;20224;-30
2021/07/01 14:52:48;;;;;;;5.50;3.30;;;20.10;82.00;;;;;;10456518;28;20738;-26
2021/07/01 14:58:12;;;;;;;5.27;3.43;;;20.10;82.00;;;;;;10474301;28;20213;-25
2021/07/01 15:03:36;;;;;;;5.03;3.17;;;20.10;82.00;;;;;;10491390;28;20209;-27
2021/07/01 15:09:13;;;;;;;3.97;3.23;;;20.10;82.00;;;;;;10463889;28;20662;-28
2021/07/01 15:14:45;;;;;;;3.80;3.43;;;20.10;81.90;;;;;;10454855;28;20331;-26
2021/07/01 15:20:10;;;;;;;3.53;3.20;;;20.10;81.90;;;;;;10460362;28;20699;-27
2021/07/01 15:25:32;;;;;;;3.73;3.33;;;20.00;81.80;;;;;;10485716;28;20220;-27
2021/07/01 15:30:55;;;;;;;4.03;3.60;;;20.10;81.80;;;;;;10463090;28;20224;-27
2021/07/01 15:36:19;;;;;;;3.40;3.03;;;20.10;81.90;;;;;;10454138;28;20209;-28
2021/07/01 15:41:41;;;;;;;3.27;2.97;;;20.00;81.90;;;;;;10464809;28;20271;-29
2021/07/01 15:47:05;;;;;;;4.13;3.33;;;20.10;82.00;;;;;;10494652;28;20220;-30
2021/07/01 15:52:28;;;;;;;3.53;3.23;;;20.10;82.10;;;;;;10495003;28;20196;-27
2021/07/01 15:57:50;;;;;;;3.40;2.93;;;20.10;82.00;;;;;;10479502;28;20212;-27
2021/07/01 16:03:14;;;;;;;4.30;2.83;;;20.10;82.00;;;;;;10486848;28;20223;-28
2021/07/01 16:08:39;;;;;;;3.33;3.03;;;20.00;81.90;;;;;;10470064;28;20214;-27
2021/07/01 16:14:01;;;;;;;4.10;2.90;;;20.00;81.90;;;;;;10453664;28;20691;-27
2021/07/01 16:19:26;;;;;;;3.20;2.90;;;20.00;81.90;;;;;;10452313;28;20208;-27
2021/07/01 16:24:48;;;;;;;2.80;2.60;;;20.00;81.90;;;;;;10473801;28;20273;-26
2021/07/01 16:30:12;;;;;;;3.00;2.67;;;20.00;81.80;;;;;;10493078;28;20196;-25
2021/07/01 16:35:36;;;;;;;4.90;2.80;;;20.00;81.80;;;;;;10491319;28;20224;-27
2021/07/01 16:40:58;;;;;;;2.63;2.43;;;20.00;81.80;;;;;;10491525;28;20575;-25
2021/07/01 16:46:24;;;;;;;2.83;2.53;;;20.00;81.80;;;;;;10493133;28;20227;-28
2021/07/01 16:51:51;;;;;;;2.93;2.70;;;20.00;81.80;;;;;;10492519;28;20568;-26
2021/07/01 16:57:17;;;;;;;3.60;2.40;;;20.00;81.80;;;;;;10487986;28;20577;-26
2021/07/01 17:02:39;;;;;;;2.80;2.60;;;20.00;81.80;;;;;;10451791;28;20193;-27
2021/07/01 17:08:03;;;;;;;2.77;2.53;;;20.00;81.80;;;;;;10457597;28;20302;-27
2021/07/01 17:13:28;;;;;;;2.80;2.60;;;20.00;82.00;;;;;;10451497;28;20193;-29
2021/07/01 17:18:55;;;;;;;2.80;2.60;;;20.00;82.10;;;;;;10450790;28;20576;-28
2021/07/01 17:24:19;;;;;;;2.87;2.50;;;20.00;82.00;;;;;;10471290;28;20350;-27
2021/07/01 17:29:42;;;;;;;3.20;2.00;;;20.00;82.10;;;;;;10456230;28;20204;-27
2021/07/01 17:35:07;;;;;;;2.30;2.17;;;20.00;82.00;;;;;;10460859;28;20243;-30
2021/07/01 17:40:31;;;;;;;2.50;2.30;;;20.00;82.00;;;;;;10458652;28;20775;-31
2021/07/01 17:45:54;;;;;;;4.83;2.50;;;20.00;82.10;;;;;;10466387;28;20224;-31
2021/07/01 17:51:16;;;;;;;2.40;2.20;;;20.00;82.10;;;;;;10459547;28;20580;-26
2021/07/01 17:56:43;;;;;;;2.30;2.10;;;20.00;82.10;;;;;;10472754;28;20216;-28
2021/07/01 18:02:06;;;;;;;3.43;2.33;;;20.00;82.10;;;;;;10500729;28;20199;-28
2021/07/01 18:07:28;;;;;;;2.47;2.27;;;20.00;82.00;;;;;;10500356;28;20298;-27
2021/07/01 18:12:52;;;;;;;2.50;2.30;;;20.00;82.00;;;;;;10487907;28;20193;-27
2021/07/01 18:18:14;;;;;;;2.63;2.37;;;20.00;82.00;;;;;;10458155;28;20216;-28
2021/07/01 18:23:36;;;;;;;3.10;2.17;;;20.00;82.00;;;;;;10491236;28;20212;-28
2021/07/01 18:29:00;;;;;;;3.47;2.27;;;20.00;81.90;;;;;;10488461;28;20694;-28
2021/07/01 18:34:22;;;;;;;3.03;2.33;;;20.00;81.90;;;;;;10457860;28;20212;-29
2021/07/01 18:39:45;;;;;;;3.37;2.40;;;20.00;81.80;;;;;;10457882;28;20709;-28
2021/07/01 18:45:11;;;;;;;2.77;2.20;;;20.00;81.80;;;;;;10473054;28;20213;-28
2021/07/01 18:50:34;;;;;;;2.70;2.50;;;20.00;81.80;;;;;;10475227;28;20219;-28
2021/07/01 18:55:56;;;;;;;2.23;2.03;;;20.00;81.80;;;;;;10477478;28;20687;-25
2021/07/01 19:01:20;;;;;;;2.40;2.20;;;20.00;81.90;;;;;;10477874;28;20185;-27
2021/07/01 19:06:42;;;;;;;2.43;2.23;;;20.00;81.90;;;;;;10473098;28;20224;-29
2021/07/01 19:12:05;;;;;;;2.10;1.90;;;20.00;81.80;;;;;;10473828;28;20194;-29
2021/07/01 19:17:28;;;;;;;2.40;2.20;;;20.00;81.90;;;;;;10476677;28;20303;-29
2021/07/01 19:22:50;;;;;;;2.17;2.03;;;20.00;81.90;;;;;;10472418;28;20197;-27
2021/07/01 19:28:13;;;;;;;2.67;2.47;;;20.00;81.90;;;;;;10473936;28;20205;-26
2021/07/01 19:33:36;;;;;;;2.50;2.30;;;20.00;81.90;;;;;;10467702;28;20208;-27
2021/07/01 19:38:59;;;;;;;3.13;2.43;;;20.00;81.80;;;;;;10467688;28;20195;-29
2021/07/01 19:44:21;;;;;;;2.10;2.00;;;20.00;81.80;;;;;;10494437;28;20319;-28
2021/07/01 19:49:45;;;;;;;2.17;2.07;;;20.00;81.80;;;;;;10472478;28;20189;-28
2021/07/01 19:55:08;;;;;;;2.20;2.00;;;20.00;81.80;;;;;;10478604;28;20216;-29
2021/07/01 20:00:31;;;;;;;2.63;2.43;;;20.00;81.80;;;;;;10487715;28;20192;-27
2021/07/01 20:05:56;;;;;;;2.60;2.37;;;20.00;81.80;;;;;;10477539;28;20224;-31
2021/07/01 20:11:18;;;;;;;2.50;2.30;;;20.00;81.80;;;;;;10452660;28;20208;-29
2021/07/01 20:16:41;;;;;;;2.30;2.10;;;20.00;81.80;;;;;;10493655;28;20213;-30
2021/07/01 20:22:05;;;;;;;2.60;2.40;;;20.00;81.90;;;;;;10477567;28;20197;-27
2021/07/01 20:27:27;;;;;;;2.30;2.17;;;20.00;82.00;;;;;;10484932;28;20227;-29
2021/07/01 20:32:49;;;;;;;2.50;2.10;;;20.00;81.80;;;;;;10494028;28;20196;-26
2021/07/01 20:38:13;;;;;;;2.73;2.20;;;20.00;81.70;;;;;;10472777;28;20597;-28
2021/07/01 20:43:36;;;;;;;2.67;2.40;;;20.00;81.80;;;;;;10459721;28;20200;-28
2021/07/01 20:48:58;;;;;;;2.90;2.20;;;20.00;81.90;;;;;;10482464;28;20682;-30
2021/07/01 20:54:25;;;;;;;2.30;2.10;;;20.00;81.90;;;;;;10493374;28;20573;-27
2021/07/01 20:59:49;;;;;;;2.70;2.50;;;20.00;81.90;;;;;;10462784;28;20699;-29
2021/07/01 21:05:12;;;;;;;2.80;2.13;;;20.00;81.90;;;;;;10461390;28;20221;-30
2021/07/01 21:10:37;;;;;;;2.77;2.53;;;20.00;81.80;;;;;;10463766;28;20771;-27
2021/07/01 21:16:00;;;;;;;2.60;2.07;;;20.00;81.80;;;;;;10483564;28;20212;-28
2021/07/01 21:21:22;;;;;;;2.50;2.30;;;20.00;82.40;;;;;;10471142;28;20200;-30
2021/07/01 21:26:46;;;;;;;2.40;2.20;;;20.00;81.90;;;;;;10450620;28;20220;-30
2021/07/01 21:32:10;;;;;;;2.67;2.47;;;20.00;81.80;;;;;;10449499;28;20193;-28
2021/07/01 21:37:32;;;;;;;2.40;2.20;;;20.00;81.90;;;;;;10450541;28;20216;-27
2021/07/01 21:42:59;;;;;;;2.23;2.10;;;20.00;81.70;;;;;;10450495;28;20584;-25
2021/07/01 21:48:23;;;;;;;2.93;2.53;;;20.00;81.70;;;;;;10450121;28;20584;-25
2021/07/01 21:53:46;;;;;;;2.63;2.43;;;20.00;81.70;;;;;;10450400;28;20204;-28
2021/07/01 21:59:10;;;;;;;2.93;2.73;;;20.00;81.60;;;;;;10462951;28;20205;-27
2021/07/01 22:04:33;;;;;;;2.73;2.53;;;19.90;81.70;;;;;;10480787;28;20225;-28
2021/07/01 22:09:56;;;;;;;3.23;2.97;;;20.00;81.60;;;;;;10450509;28;20223;-28
2021/07/01 22:15:26;;;;;;;3.07;2.83;;;20.00;81.60;;;;;;10463101;28;20718;-29
2021/07/01 22:20:48;;;;;;;4.20;2.70;;;20.00;81.40;;;;;;10486230;28;20283;-27
2021/07/01 22:26:13;;;;;;;3.03;2.73;;;20.00;81.60;;;;;;10465027;28;20220;-27
2021/07/01 22:31:36;;;;;;;4.57;3.03;;;20.00;81.50;;;;;;10466081;28;20668;-29
2021/07/01 22:36:58;;;;;;;2.90;2.70;;;19.90;81.60;;;;;;10457547;28;20217;-27
2021/07/01 22:42:21;;;;;;;3.57;2.87;;;19.90;81.50;;;;;;10456851;28;20201;-27
2021/07/01 22:47:44;;;;;;;3.30;2.73;;;20.00;81.50;;;;;;10456494;28;20220;-28
2021/07/01 22:53:06;;;;;;;3.50;3.20;;;19.90;82.10;;;;;;10456593;28;20204;-27
2021/07/01 22:58:28;;;;;;;3.40;3.10;;;19.90;81.40;;;;;;10474835;28;20228;-26
2021/07/01 23:03:52;;;;;;;4.23;3.20;;;20.00;81.50;;;;;;10497757;28;20215;-29
2021/07/01 23:09:14;;;;;;;3.13;2.90;;;19.90;81.40;;;;;;10497959;28;20695;-29
2021/07/01 23:14:36;;;;;;;3.33;3.03;;;19.90;81.40;;;;;;10495808;28;20754;-29
2021/07/01 23:19:59;;;;;;;4.00;3.30;;;19.90;81.30;;;;;;10492594;28;20586;-28
2021/07/01 23:25:22;;;;;;;3.83;3.47;;;19.90;81.40;;;;;;10490142;28;20592;-27
2021/07/01 23:30:44;;;;;;;3.80;3.50;;;19.90;81.30;;;;;;10496068;28;20718;-28
2021/07/01 23:36:07;;;;;;;3.57;3.27;;;19.90;81.30;;;;;;10496065;28;20219;-27
2021/07/01 23:41:29;;;;;;;4.03;3.73;;;19.90;81.20;;;;;;10495816;28;20208;-27
2021/07/01 23:46:51;;;;;;;4.03;3.00;;;20.00;81.40;;;;;;10496024;28;20227;-28
2021/07/01 23:52:15;;;;;;;3.60;3.30;;;19.90;81.20;;;;;;10493704;28;20207;-30
2021/07/01 23:57:37;;;;;;;3.60;3.30;;;19.90;81.10;;;;;;10488014;28;20224;-26
